Terminal Aerodrome Forecast
Issued by NWS Northern Indiana

Home | Current Version | Previous Version | Text Only | Print | Product List | Glossary On
Versions: 1 2 3 4 5 6 7 8 9 10 11 12 13 14 15 16 17
000
FTUS43 KIWX 232330
TAFFWA
TAF
KFWA 232330Z 2400/2424 27011KT P6SM OVC010
     FM240300 29005KT P6SM OVC008
     FM240900 04005KT P6SM VCSH OVC008
     FM241300 07007KT 3SM -RA OVC008
     FM241900 08011KT 5SM -RA OVC008=

USA.gov is the U.S. government's official web portal to all federal, state and local government web resources and services.